Time;durP1;ratioP1;P1;durP2;ratioP2;P2;SDS_P1;SDS_P2;PMS_P1;PMS_P2;Temp;Humidity;BMP_temperature;BMP_pressure;BME280_temperature;BME280_humidity;BME280_pressure;Samples;Min_cycle;Max_cycle;Signal;HPM_P1;HPM_P2
2023/04/26 00:02:08;;;;;;;10.83;4.97;;;6.30;99.90;;;;;;4386943;28;655628;-74
2023/04/26 00:05:00;;;;;;;14.57;4.67;;;6.30;99.90;;;;;;4368422;28;654464;-72
2023/04/26 00:07:49;;;;;;;14.97;4.70;;;6.30;99.90;;;;;;4366770;28;655097;-74
2023/04/26 00:10:36;;;;;;;10.60;3.77;;;6.30;99.90;;;;;;4372588;28;654876;-74
2023/04/26 00:13:24;;;;;;;15.83;4.23;;;6.20;99.90;;;;;;4383802;28;654344;-74
2023/04/26 00:16:11;;;;;;;18.38;4.18;;;6.30;99.90;;;;;;4367312;28;654978;-71
2023/04/26 00:18:58;;;;;;;11.15;3.75;;;6.20;99.90;;;;;;4388734;28;655380;-74
2023/04/26 00:21:47;;;;;;;14.77;4.43;;;6.20;99.90;;;;;;4369128;28;653966;-73
2023/04/26 00:24:34;;;;;;;16.87;4.90;;;6.10;99.90;;;;;;4389756;28;654154;-74
2023/04/26 00:27:21;;;;;;;16.77;4.90;;;6.00;99.90;;;;;;4368452;28;654732;-74
2023/04/26 00:30:10;;;;;;;12.67;4.53;;;6.00;99.90;;;;;;4393065;28;654593;-74
2023/04/26 00:32:57;;;;;;;16.53;4.60;;;6.00;99.90;;;;;;4360676;28;655639;-72
2023/04/26 00:35:44;;;;;;;11.00;4.23;;;5.90;99.90;;;;;;4396286;28;653957;-73
2023/04/26 00:38:33;;;;;;;14.07;4.33;;;5.80;99.90;;;;;;4373240;28;654468;-74
2023/04/26 00:41:20;;;;;;;14.07;4.40;;;5.70;99.90;;;;;;4380409;28;655163;-71
2023/04/26 00:44:08;;;;;;;15.23;4.13;;;5.60;99.90;;;;;;4392966;28;655506;-74
2023/04/26 00:46:55;;;;;;;15.03;4.27;;;5.50;99.90;;;;;;4385353;28;654355;-71
2023/04/26 00:49:43;;;;;;;12.83;3.80;;;5.40;99.90;;;;;;4379999;28;656121;-72
2023/04/26 00:52:30;;;;;;;16.53;4.30;;;5.40;99.90;;;;;;4377877;28;655512;-72
2023/04/26 00:55:19;;;;;;;12.30;4.33;;;5.40;99.90;;;;;;4393507;28;655474;-73
2023/04/26 00:58:07;;;;;;;9.30;4.40;;;5.30;99.90;;;;;;4371313;28;654859;-74
2023/04/26 01:00:54;;;;;;;15.07;4.23;;;5.20;99.90;;;;;;4392761;28;653165;-74
2023/04/26 01:03:43;;;;;;;16.57;4.20;;;5.20;99.90;;;;;;4374146;28;655377;-74
2023/04/26 01:06:33;;;;;;;14.17;4.07;;;5.10;99.90;;;;;;4378393;28;654742;-72
2023/04/26 01:09:20;;;;;;;17.50;4.47;;;5.10;99.90;;;;;;4372805;28;654724;-72
2023/04/26 01:12:09;;;;;;;19.47;4.77;;;5.10;99.90;;;;;;4246460;28;655359;-71
2023/04/26 01:14:56;;;;;;;17.73;5.23;;;5.00;99.90;;;;;;4193722;28;654222;-71
2023/04/26 01:17:46;;;;;;;12.73;4.40;;;5.00;99.90;;;;;;4299556;28;655422;-73
2023/04/26 01:20:33;;;;;;;17.87;5.13;;;5.00;99.90;;;;;;4369640;28;655650;-74
2023/04/26 01:23:22;;;;;;;18.27;5.20;;;4.90;99.90;;;;;;4361837;28;655345;-73
2023/04/26 01:26:09;;;;;;;16.30;5.20;;;4.80;99.90;;;;;;4387106;28;654995;-74
2023/04/26 01:28:56;;;;;;;18.73;5.17;;;4.90;99.90;;;;;;4373417;28;654342;-73
2023/04/26 01:31:44;;;;;;;16.40;5.47;;;4.80;99.90;;;;;;4388617;28;654443;-74
2023/04/26 01:34:32;;;;;;;25.33;5.57;;;4.70;99.90;;;;;;4373010;28;654538;-74
2023/04/26 01:37:19;;;;;;;21.33;5.83;;;4.70;99.90;;;;;;4390379;28;654690;-74
2023/04/26 01:40:10;;;;;;;18.27;5.30;;;4.60;99.90;;;;;;4366337;28;654875;-74
2023/04/26 01:42:57;;;;;;;16.30;5.47;;;4.60;99.90;;;;;;4368739;28;655314;-73
2023/04/26 01:45:46;;;;;;;18.80;5.97;;;4.60;99.90;;;;;;4397429;28;654236;-74
2023/04/26 01:48:34;;;;;;;11.63;5.30;;;4.50;99.90;;;;;;4370846;28;656061;-74
2023/04/26 01:51:21;;;;;;;19.50;5.60;;;4.40;99.90;;;;;;4369810;28;654567;-74
2023/04/26 01:54:08;;;;;;;13.73;4.93;;;4.30;99.90;;;;;;4393722;28;655004;-74
2023/04/26 01:56:57;;;;;;;17.33;4.60;;;4.30;99.90;;;;;;4366788;28;654040;-73
2023/04/26 01:59:44;;;;;;;10.77;4.33;;;4.20;99.90;;;;;;4387187;28;655037;-73
2023/04/26 02:02:31;;;;;;;11.07;4.37;;;4.10;99.90;;;;;;4368928;28;654686;-74
2023/04/26 02:05:18;;;;;;;14.57;4.53;;;4.10;99.90;;;;;;4390511;28;656086;-74
2023/04/26 02:08:06;;;;;;;12.07;4.30;;;4.10;99.90;;;;;;4373578;28;654300;-74
2023/04/26 02:10:53;;;;;;;15.13;4.05;;;4.00;99.90;;;;;;4392416;28;655518;-73
2023/04/26 02:13:42;;;;;;;17.37;4.80;;;4.00;99.90;;;;;;4362874;28;654690;-72
2023/04/26 02:16:29;;;;;;;16.00;4.07;;;4.00;99.90;;;;;;4392409;28;654814;-74
2023/04/26 02:19:16;;;;;;;17.50;4.43;;;3.90;99.90;;;;;;4362058;28;655161;-73
2023/04/26 02:22:05;;;;;;;17.23;4.82;;;3.80;99.90;;;;;;4393010;28;657254;-74
2023/04/26 02:24:52;;;;;;;12.37;4.10;;;3.80;99.90;;;;;;4374221;28;655485;-72
2023/04/26 02:27:39;;;;;;;17.30;4.33;;;3.80;99.90;;;;;;4391672;28;654787;-73
2023/04/26 02:30:28;;;;;;;12.07;4.20;;;3.80;99.90;;;;;;4368851;28;655363;-74
2023/04/26 02:33:15;;;;;;;18.20;4.60;;;3.80;99.90;;;;;;4375728;28;655205;-72
2023/04/26 02:36:04;;;;;;;15.90;4.70;;;3.70;99.90;;;;;;4382704;28;655873;-73
2023/04/26 02:38:51;;;;;;;20.90;4.60;;;3.60;99.90;;;;;;4370746;28;654484;-73
2023/04/26 02:41:38;;;;;;;15.67;4.43;;;3.60;99.90;;;;;;4393914;28;655121;-73
2023/04/26 02:44:25;;;;;;;22.50;4.67;;;3.50;99.90;;;;;;4370334;28;654350;-74
2023/04/26 02:47:14;;;;;;;15.20;4.23;;;3.50;99.90;;;;;;4387552;28;655352;-73
2023/04/26 02:50:02;;;;;;;15.40;5.20;;;3.40;99.90;;;;;;4369111;28;654744;-73
2023/04/26 02:52:49;;;;;;;20.00;4.23;;;3.40;99.90;;;;;;4383136;28;655179;-74
2023/04/26 02:55:37;;;;;;;17.40;4.60;;;3.40;99.90;;;;;;4364871;28;654617;-74
2023/04/26 02:58:25;;;;;;;16.40;4.23;;;3.30;99.90;;;;;;4387083;28;655391;-72
2023/04/26 03:01:13;;;;;;;13.53;4.53;;;3.20;99.90;;;;;;4392919;28;655056;-73
2023/04/26 03:04:02;;;;;;;17.92;3.95;;;3.10;99.90;;;;;;4368562;28;654472;-72
2023/04/26 03:06:49;;;;;;;19.77;4.20;;;3.10;99.90;;;;;;4390278;28;655843;-73
2023/04/26 03:09:37;;;;;;;19.13;4.27;;;3.10;99.90;;;;;;4365501;28;654762;-73
2023/04/26 03:12:25;;;;;;;9.23;3.43;;;3.00;99.90;;;;;;4388009;28;654136;-73
2023/04/26 03:15:12;;;;;;;15.43;3.97;;;3.00;99.90;;;;;;4368005;28;654618;-74
2023/04/26 03:17:59;;;;;;;16.83;4.30;;;2.90;99.90;;;;;;4385714;28;655278;-71
2023/04/26 03:20:48;;;;;;;11.70;3.57;;;2.80;99.90;;;;;;4360997;28;654660;-74
2023/04/26 03:23:35;;;;;;;12.13;3.73;;;2.80;99.90;;;;;;4371988;28;654362;-71
2023/04/26 03:26:22;;;;;;;17.70;3.47;;;2.80;99.90;;;;;;4379789;28;655654;-73
2023/04/26 03:29:11;;;;;;;12.10;3.37;;;2.80;99.90;;;;;;4390721;28;655465;-72
2023/04/26 03:31:58;;;;;;;13.67;3.67;;;2.80;99.90;;;;;;4391352;28;654816;-73
2023/04/26 03:34:47;;;;;;;13.07;3.57;;;2.80;99.90;;;;;;4369548;28;654609;-71
2023/04/26 03:37:38;;;;;;;14.15;3.83;;;2.80;99.90;;;;;;4391849;28;654685;-74
2023/04/26 03:40:25;;;;;;;14.43;3.93;;;2.70;99.90;;;;;;4343712;28;654853;-72
2023/04/26 03:43:12;;;;;;;15.40;3.30;;;2.70;99.90;;;;;;4378342;28;655880;-72
2023/04/26 03:46:00;;;;;;;8.43;3.67;;;2.60;99.90;;;;;;4388136;28;654575;-71
2023/04/26 03:48:47;;;;;;;12.83;4.10;;;2.70;99.90;;;;;;4390067;28;654274;-74
2023/04/26 03:51:35;;;;;;;9.80;3.53;;;2.60;99.90;;;;;;4387838;28;654605;-71
2023/04/26 03:54:24;;;;;;;10.97;3.87;;;2.70;99.90;;;;;;4393809;28;655054;-74
2023/04/26 03:57:11;;;;;;;12.83;4.30;;;2.70;99.90;;;;;;4369481;28;654619;-73
2023/04/26 03:59:58;;;;;;;20.30;4.20;;;2.70;99.90;;;;;;4394318;28;655278;-72
2023/04/26 04:02:45;;;;;;;11.43;3.50;;;2.70;99.90;;;;;;4367874;28;654248;-72
2023/04/26 04:05:33;;;;;;;17.47;4.57;;;2.70;99.90;;;;;;4390301;28;654873;-74
2023/04/26 04:08:20;;;;;;;12.93;4.47;;;2.60;99.90;;;;;;4380803;28;654755;-72
2023/04/26 04:11:09;;;;;;;15.40;4.50;;;2.70;99.90;;;;;;4393107;28;655199;-74
2023/04/26 04:13:56;;;;;;;16.70;4.10;;;2.70;99.90;;;;;;4375830;28;654653;-74
2023/04/26 04:16:43;;;;;;;13.10;4.30;;;2.80;99.90;;;;;;4398307;28;655466;-72
2023/04/26 04:19:30;;;;;;;19.63;4.27;;;2.80;99.90;;;;;;4368471;28;654534;-73
2023/04/26 04:22:18;;;;;;;13.57;4.30;;;2.80;99.90;;;;;;4392554;28;655606;-73
2023/04/26 04:25:06;;;;;;;13.10;4.20;;;2.90;99.90;;;;;;4377752;28;654916;-72
2023/04/26 04:27:55;;;;;;;10.50;4.30;;;2.90;99.90;;;;;;4393123;28;655280;-74
2023/04/26 04:30:44;;;;;;;14.53;4.43;;;3.00;99.90;;;;;;4369926;28;656025;-72
2023/04/26 04:33:32;;;;;;;19.03;4.93;;;3.00;99.90;;;;;;4373198;28;654429;-74
2023/04/26 04:36:19;;;;;;;11.37;4.30;;;3.10;99.90;;;;;;4389741;28;654281;-73
2023/04/26 04:39:11;;;;;;;18.17;4.90;;;3.20;99.90;;;;;;4375384;28;655561;-73
2023/04/26 04:41:59;;;;;;;12.33;5.00;;;3.30;99.90;;;;;;4371050;28;654654;-74
2023/04/26 04:44:48;;;;;;;16.53;4.87;;;3.20;99.90;;;;;;4370248;28;654818;-73
2023/04/26 04:47:38;;;;;;;21.17;4.60;;;3.30;99.90;;;;;;4371676;28;654519;-74
2023/04/26 04:50:25;;;;;;;16.43;5.07;;;3.40;99.90;;;;;;4372944;28;655111;-72
2023/04/26 04:53:12;;;;;;;16.67;5.13;;;3.50;99.90;;;;;;4390241;28;656064;-73
2023/04/26 04:56:00;;;;;;;12.87;5.73;;;3.50;99.90;;;;;;4384654;28;654417;-72
2023/04/26 04:58:47;;;;;;;18.67;6.10;;;3.50;99.90;;;;;;4391133;28;655068;-74
2023/04/26 05:01:37;;;;;;;13.67;5.40;;;3.60;99.90;;;;;;4383711;28;654847;-73
2023/04/26 05:04:24;;;;;;;22.05;6.10;;;3.60;99.90;;;;;;4393798;28;654604;-73
2023/04/26 05:07:11;;;;;;;16.30;5.43;;;3.70;99.90;;;;;;4363496;28;654468;-74
2023/04/26 05:09:59;;;;;;;15.90;5.70;;;3.70;99.90;;;;;;4390888;28;655055;-74
2023/04/26 05:12:46;;;;;;;20.07;5.80;;;3.70;99.90;;;;;;4367960;28;655327;-74
2023/04/26 05:15:33;;;;;;;17.83;5.90;;;3.80;99.90;;;;;;4385837;28;655317;-73
2023/04/26 05:18:22;;;;;;;17.00;5.27;;;3.80;99.90;;;;;;4372698;28;655046;-73
2023/04/26 05:21:09;;;;;;;16.77;5.20;;;3.80;99.90;;;;;;4389899;28;654196;-74
2023/04/26 05:23:56;;;;;;;16.83;5.43;;;3.90;99.90;;;;;;4372836;28;654887;-74
2023/04/26 05:26:43;;;;;;;12.10;4.17;;;4.00;99.90;;;;;;4391597;28;655280;-74
2023/04/26 05:29:31;;;;;;;12.37;4.40;;;4.10;99.90;;;;;;4371904;28;654737;-73
2023/04/26 05:32:18;;;;;;;18.17;4.73;;;4.20;99.90;;;;;;4391663;28;655356;-72
2023/04/26 05:35:07;;;;;;;10.23;3.73;;;4.20;99.90;;;;;;4379573;28;654914;-72
2023/04/26 05:37:55;;;;;;;15.40;4.73;;;4.30;99.90;;;;;;4376566;28;654636;-71
2023/04/26 05:40:42;;;;;;;15.07;4.33;;;4.50;99.90;;;;;;4398531;28;654882;-73
2023/04/26 05:43:30;;;;;;;11.90;4.13;;;4.60;99.90;;;;;;4387060;28;655943;-73
2023/04/26 05:46:17;;;;;;;11.47;3.70;;;4.70;99.90;;;;;;4364677;28;655322;-74
2023/04/26 05:49:04;;;;;;;13.20;4.13;;;4.70;99.90;;;;;;4378182;28;655032;-73
2023/04/26 05:51:53;;;;;;;11.37;3.77;;;4.80;99.90;;;;;;4371381;28;654268;-73
2023/04/26 05:54:40;;;;;;;13.23;3.00;;;4.90;99.90;;;;;;4373629;28;654550;-73
2023/04/26 05:57:27;;;;;;;9.43;3.23;;;4.90;99.90;;;;;;4391396;28;654281;-74
2023/04/26 06:00:15;;;;;;;12.13;3.60;;;4.90;99.90;;;;;;4382252;28;654490;-74
2023/04/26 06:03:02;;;;;;;15.17;3.50;;;5.10;99.90;;;;;;4365287;28;654986;-74
2023/04/26 06:05:50;;;;;;;8.73;3.20;;;5.20;99.90;;;;;;4382588;28;654521;-72
2023/04/26 06:08:39;;;;;;;7.43;3.17;;;5.30;99.90;;;;;;4389747;28;653932;-74
2023/04/26 06:11:26;;;;;;;8.70;2.75;;;5.30;99.90;;;;;;4368744;28;653953;-74
2023/04/26 06:14:13;;;;;;;10.57;2.80;;;5.50;99.90;;;;;;4384627;28;654013;-73
2023/04/26 06:17:00;;;;;;;10.60;2.67;;;5.70;99.90;;;;;;4364709;28;654511;-72
2023/04/26 06:19:48;;;;;;;9.53;2.87;;;5.70;99.90;;;;;;4389874;28;655614;-73
2023/04/26 06:22:35;;;;;;;11.27;2.70;;;5.70;99.90;;;;;;4380671;28;653361;-72
2023/04/26 06:25:24;;;;;;;6.43;2.37;;;5.80;99.90;;;;;;4393703;28;655378;-73
2023/04/26 06:28:11;;;;;;;7.00;2.20;;;5.40;99.90;;;;;;4368751;28;653359;-72
2023/04/26 06:30:58;;;;;;;12.17;2.60;;;5.50;99.90;;;;;;4389811;28;654927;-75
2023/04/26 06:33:46;;;;;;;13.70;2.90;;;5.50;99.90;;;;;;4362982;28;655038;-74
2023/04/26 06:36:33;;;;;;;17.77;3.43;;;5.60;99.90;;;;;;4388727;28;654401;-75
2023/04/26 06:39:20;;;;;;;8.90;2.67;;;5.90;99.90;;;;;;4364399;28;654313;-74
2023/04/26 06:42:10;;;;;;;11.57;2.70;;;6.20;99.90;;;;;;4392102;28;653358;-73
2023/04/26 06:44:57;;;;;;;10.10;2.50;;;6.50;99.90;;;;;;4359469;28;654594;-74
2023/04/26 06:47:45;;;;;;;11.80;2.10;;;6.60;99.90;;;;;;4376067;28;654032;-73
2023/04/26 06:50:32;;;;;;;9.00;2.63;;;6.90;99.90;;;;;;4386890;28;654425;-74
2023/04/26 06:53:20;;;;;;;9.83;2.17;;;6.70;99.90;;;;;;4375003;28;654461;-73
2023/04/26 06:56:08;;;;;;;14.73;2.13;;;6.60;99.90;;;;;;4387087;28;653344;-73
2023/04/26 06:59:00;;;;;;;8.37;2.20;;;6.50;99.90;;;;;;4374093;28;654164;-71
2023/04/26 07:01:48;;;;;;;13.50;2.87;;;6.60;99.90;;;;;;4367972;28;654319;-73
2023/04/26 07:04:35;;;;;;;11.47;2.20;;;6.40;99.90;;;;;;4376307;28;654716;-73
2023/04/26 07:07:22;;;;;;;9.33;2.37;;;6.60;99.90;;;;;;4382413;28;654197;-74
2023/04/26 07:10:10;;;;;;;6.17;1.73;;;7.10;99.90;;;;;;4377519;28;654509;-74
2023/04/26 07:12:58;;;;;;;12.33;2.13;;;7.00;99.90;;;;;;4385144;28;653860;-75
2023/04/26 07:15:47;;;;;;;17.00;2.73;;;6.70;99.90;;;;;;4373332;28;654380;-73
2023/04/26 07:18:34;;;;;;;8.10;2.10;;;6.70;99.90;;;;;;4255502;28;654614;-72
2023/04/26 07:21:21;;;;;;;9.87;2.20;;;6.80;99.90;;;;;;4189126;28;653556;-72
2023/04/26 07:24:08;;;;;;;14.50;2.40;;;7.30;99.90;;;;;;4267853;28;655835;-75
2023/04/26 07:26:56;;;;;;;7.00;1.77;;;7.70;99.90;;;;;;4360474;28;654368;-74
2023/04/26 07:29:43;;;;;;;6.20;1.70;;;7.70;99.90;;;;;;4395157;28;654281;-74
2023/04/26 07:32:32;;;;;;;10.90;2.00;;;7.70;99.90;;;;;;4373791;28;654126;-73
2023/04/26 07:35:19;;;;;;;7.55;1.98;;;8.40;99.90;;;;;;4388099;28;656119;-75
2023/04/26 07:38:07;;;;;;;8.40;2.13;;;8.80;99.10;;;;;;4361805;28;654298;-75
2023/04/26 07:40:55;;;;;;;9.87;2.10;;;8.80;99.00;;;;;;4388355;28;653909;-73
2023/04/26 07:43:42;;;;;;;15.10;2.03;;;8.20;97.80;;;;;;4397419;28;653384;-75
2023/04/26 07:46:29;;;;;;;9.07;2.17;;;7.30;99.90;;;;;;4376468;28;655024;-73
2023/04/26 07:49:18;;;;;;;9.70;2.40;;;7.10;99.90;;;;;;4373908;28;653807;-74
2023/04/26 07:52:05;;;;;;;11.10;2.13;;;7.30;99.90;;;;;;4376048;28;653416;-73
2023/04/26 07:54:52;;;;;;;5.17;1.80;;;7.60;99.90;;;;;;4394711;28;656178;-75
2023/04/26 07:57:40;;;;;;;9.40;2.27;;;7.60;99.90;;;;;;4390847;28;653467;-73
2023/04/26 08:00:28;;;;;;;8.70;2.30;;;7.30;99.90;;;;;;4396127;28;654338;-74
2023/04/26 08:03:16;;;;;;;7.13;1.97;;;7.60;99.90;;;;;;4371850;28;653957;-72
2023/04/26 08:06:05;;;;;;;3.50;1.73;;;7.30;99.90;;;;;;4391807;28;654108;-73
2023/04/26 08:08:52;;;;;;;8.77;1.97;;;7.10;99.90;;;;;;4367894;28;653646;-74
2023/04/26 08:11:40;;;;;;;7.37;1.50;;;7.60;99.90;;;;;;4387700;28;653261;-73
2023/04/26 08:14:29;;;;;;;5.60;1.73;;;7.80;99.90;;;;;;4395801;28;654808;-74
2023/04/26 08:17:16;;;;;;;5.03;1.70;;;7.90;99.90;;;;;;4377963;28;653277;-74
2023/04/26 08:20:04;;;;;;;5.23;1.70;;;7.80;99.90;;;;;;4394952;28;653890;-74
2023/04/26 08:22:56;;;;;;;6.07;1.97;;;7.70;98.20;;;;;;4375246;28;653633;-73
2023/04/26 08:25:44;;;;;;;9.53;1.97;;;7.70;99.90;;;;;;4375407;28;654038;-74
2023/04/26 08:28:31;;;;;;;6.63;1.80;;;7.60;99.90;;;;;;4374716;28;653406;-74
2023/04/26 08:31:18;;;;;;;8.30;1.93;;;7.60;99.90;;;;;;4384857;28;654353;-74
2023/04/26 08:34:07;;;;;;;5.30;2.20;;;8.00;99.90;;;;;;4373971;28;653719;-75
2023/04/26 08:36:55;;;;;;;9.17;2.33;;;7.90;99.90;;;;;;4393781;28;653295;-75
2023/04/26 08:39:44;;;;;;;6.37;2.20;;;7.90;99.90;;;;;;4392555;28;654561;-73
2023/04/26 08:42:31;;;;;;;5.47;1.70;;;7.60;99.90;;;;;;4372864;28;653355;-74
2023/04/26 08:45:18;;;;;;;7.45;2.10;;;7.30;99.90;;;;;;4393411;28;654936;-76
2023/04/26 08:48:08;;;;;;;11.20;2.07;;;6.90;99.90;;;;;;4365712;28;653136;-74
2023/04/26 08:50:55;;;;;;;9.03;1.77;;;7.00;99.90;;;;;;4382144;28;654389;-72
2023/04/26 08:53:42;;;;;;;3.50;1.90;;;6.90;99.90;;;;;;4406120;28;652721;-75
2023/04/26 08:56:31;;;;;;;7.63;2.10;;;7.40;99.90;;;;;;4397925;28;653279;-75
2023/04/26 08:59:18;;;;;;;8.67;2.57;;;8.20;99.90;;;;;;4374302;28;654087;-74
2023/04/26 09:02:06;;;;;;;7.30;2.30;;;8.80;99.90;;;;;;4369621;28;653707;-74
2023/04/26 09:04:53;;;;;;;12.23;2.27;;;9.70;99.10;;;;;;4387231;28;653800;-75
2023/04/26 09:07:41;;;;;;;7.37;1.83;;;10.20;99.90;;;;;;4371532;28;654719;-73
2023/04/26 09:10:29;;;;;;;2.77;1.43;;;10.70;93.20;;;;;;4385624;28;654511;-72
2023/04/26 09:13:17;;;;;;;5.13;1.80;;;9.60;89.80;;;;;;4370020;28;654290;-74
2023/04/26 09:16:06;;;;;;;9.97;1.90;;;8.60;87.50;;;;;;4395146;28;653632;-72
2023/04/26 09:18:56;;;;;;;4.23;1.67;;;8.00;91.10;;;;;;4390640;28;654412;-73
2023/04/26 09:21:44;;;;;;;11.63;2.00;;;7.80;91.70;;;;;;4372179;28;654177;-75
2023/04/26 09:24:46;;;;;;;6.90;1.80;;;7.90;93.60;;;;;;4369087;28;654872;-74
2023/04/26 09:27:34;;;;;;;2.90;1.50;;;8.30;95.10;;;;;;4372293;28;654393;-73
2023/04/26 09:30:23;;;;;;;5.60;1.57;;;9.00;93.20;;;;;;4369715;28;653411;-73
2023/04/26 09:33:10;;;;;;;7.40;1.80;;;8.60;90.40;;;;;;4381479;28;653522;-72
2023/04/26 09:35:58;;;;;;;9.83;1.70;;;8.30;91.60;;;;;;4397275;28;654092;-72
2023/04/26 09:38:45;;;;;;;9.63;1.45;;;7.60;94.70;;;;;;4373294;28;656966;-71
2023/04/26 09:41:45;;;;;;;11.43;1.87;;;7.40;94.90;;;;;;4391944;28;654301;-73
2023/04/26 09:44:32;;;;;;;9.00;2.13;;;7.80;97.40;;;;;;4343472;28;654794;-74
2023/04/26 09:47:21;;;;;;;6.30;1.90;;;7.90;94.90;;;;;;4391626;28;654427;-73
2023/04/26 09:50:08;;;;;;;5.83;1.93;;;7.90;94.30;;;;;;4369284;28;654114;-72
2023/04/26 09:52:56;;;;;;;5.40;1.60;;;7.40;92.50;;;;;;4367527;28;654551;-74
2023/04/26 09:55:43;;;;;;;4.43;1.17;;;7.40;92.10;;;;;;4392563;28;654417;-73
2023/04/26 09:58:31;;;;;;;2.97;1.17;;;7.60;89.20;;;;;;4371489;28;653167;-72
2023/04/26 10:01:19;;;;;;;4.57;1.60;;;7.60;86.60;;;;;;4391231;28;654088;-74
2023/04/26 10:04:08;;;;;;;7.47;1.23;;;8.30;90.20;;;;;;4371257;28;654131;-74
2023/04/26 10:06:56;;;;;;;1.52;0.80;;;8.70;83.50;;;;;;4377929;28;653835;-74
2023/04/26 10:09:43;;;;;;;5.07;1.17;;;8.60;78.20;;;;;;4383605;28;653896;-74
2023/04/26 10:12:30;;;;;;;8.32;1.75;;;8.50;82.70;;;;;;4365814;28;653647;-72
2023/04/26 10:15:18;;;;;;;6.90;1.40;;;8.10;80.70;;;;;;4396658;28;654323;-74
2023/04/26 10:18:05;;;;;;;3.27;1.43;;;7.90;86.90;;;;;;4386318;28;653326;-74
2023/04/26 10:20:56;;;;;;;4.67;1.20;;;7.90;78.60;;;;;;4390658;28;654760;-75
2023/04/26 10:23:43;;;;;;;7.53;1.70;;;8.10;87.80;;;;;;4363249;28;654395;-75
2023/04/26 10:26:50;;;;;;;4.00;1.20;;;8.60;81.70;;;;;;4361078;28;653893;-74
2023/04/26 10:30:06;;;;;;;9.53;1.77;;;8.70;78.20;;;;;;4342431;28;654088;-74
2023/04/26 10:33:17;;;;;;;7.70;1.60;;;8.20;84.50;;;;;;4338454;28;654386;-73
2023/04/26 10:36:11;;;;;;;3.13;1.00;;;7.70;80.40;;;;;;4365718;28;653050;-74
2023/04/26 10:39:21;;;;;;;2.33;0.90;;;7.70;75.00;;;;;;4366463;28;653936;-73
2023/04/26 10:42:21;;;;;;;4.47;0.90;;;8.30;78.00;;;;;;4372584;28;654569;-74
2023/04/26 10:45:26;;;;;;;3.67;1.27;;;8.90;78.60;;;;;;4368806;28;654107;-73
2023/04/26 10:48:17;;;;;;;5.77;1.07;;;9.80;70.80;;;;;;4359813;28;654323;-74
2023/04/26 10:51:12;;;;;;;4.70;1.10;;;10.30;75.50;;;;;;4366611;28;653739;-75
2023/04/26 10:54:01;;;;;;;3.87;1.10;;;10.00;72.60;;;;;;4366162;28;654739;-75
2023/04/26 10:56:51;;;;;;;8.03;1.70;;;8.60;72.60;;;;;;4366688;28;655618;-75
2023/04/26 10:59:39;;;;;;;5.47;1.13;;;8.50;79.10;;;;;;4369007;28;654402;-73
2023/04/26 11:02:47;;;;;;;5.33;1.43;;;8.40;79.40;;;;;;4369962;28;655552;-75
2023/04/26 11:05:48;;;;;;;5.83;1.40;;;8.50;80.70;;;;;;4362058;28;653257;-74
2023/04/26 11:08:37;;;;;;;3.47;1.17;;;8.80;82.30;;;;;;4370497;28;653331;-74
2023/04/26 11:11:28;;;;;;;4.17;1.30;;;8.80;75.70;;;;;;4390879;28;652860;-75
2023/04/26 11:14:16;;;;;;;3.97;1.20;;;8.90;80.50;;;;;;4344772;28;654032;-75
2023/04/26 11:17:04;;;;;;;4.83;1.17;;;8.70;81.60;;;;;;4388041;28;654404;-74
2023/04/26 11:19:51;;;;;;;3.03;1.20;;;8.90;78.60;;;;;;4360043;28;653244;-75
2023/04/26 11:22:40;;;;;;;3.03;0.90;;;9.30;78.90;;;;;;4387440;28;654107;-74
2023/04/26 11:25:29;;;;;;;3.80;1.20;;;10.20;76.80;;;;;;4354439;28;654584;-75
2023/04/26 11:28:19;;;;;;;4.10;1.20;;;10.40;68.30;;;;;;4365369;28;654326;-76
2023/04/26 11:31:07;;;;;;;6.20;1.20;;;11.30;71.40;;;;;;4368596;28;654862;-75
2023/04/26 11:33:54;;;;;;;8.60;1.40;;;11.10;57.10;;;;;;4382222;28;655315;-75
2023/04/26 11:36:41;;;;;;;6.47;1.23;;;11.10;59.40;;;;;;4364775;28;654606;-75
2023/04/26 11:39:28;;;;;;;4.53;1.33;;;10.80;62.60;;;;;;4379967;28;654625;-75
2023/04/26 11:42:17;;;;;;;5.57;1.30;;;10.10;64.10;;;;;;4371597;28;654877;-74
2023/04/26 11:45:07;;;;;;;4.50;1.17;;;10.40;67.40;;;;;;4385713;28;654466;-75
2023/04/26 11:47:54;;;;;;;6.13;0.90;;;11.20;65.40;;;;;;4369796;28;654307;-75
2023/04/26 11:50:41;;;;;;;4.13;0.87;;;11.10;65.10;;;;;;4360504;28;654098;-75
2023/04/26 11:53:36;;;;;;;2.07;0.70;;;10.80;52.20;;;;;;4383251;28;655287;-75
2023/04/26 11:56:25;;;;;;;2.60;0.90;;;10.70;51.90;;;;;;4354867;28;656032;-75
2023/04/26 11:59:13;;;;;;;2.50;0.67;;;10.40;53.60;;;;;;4370962;28;654414;-75
2023/04/26 12:02:06;;;;;;;2.10;0.90;;;11.20;56.90;;;;;;4368876;28;654834;-73
2023/04/26 12:04:58;;;;;;;7.43;1.50;;;11.10;50.00;;;;;;4363110;28;654742;-75
2023/04/26 12:07:46;;;;;;;2.13;1.07;;;10.00;51.90;;;;;;4342403;28;657005;-72
2023/04/26 12:10:35;;;;;;;4.33;1.30;;;9.10;53.50;;;;;;4389128;28;655189;-75
2023/04/26 12:13:23;;;;;;;4.50;1.27;;;9.70;57.90;;;;;;4353660;28;654141;-75
2023/04/26 12:16:12;;;;;;;4.33;1.40;;;10.00;55.30;;;;;;4378731;28;653638;-73
2023/04/26 12:18:59;;;;;;;6.63;1.53;;;9.00;59.90;;;;;;4396221;28;654103;-75
2023/04/26 12:21:49;;;;;;;8.60;1.60;;;9.00;62.50;;;;;;4375635;28;653928;-74
2023/04/26 12:24:36;;;;;;;5.10;1.50;;;8.60;63.10;;;;;;4374361;28;653528;-75
2023/04/26 12:27:23;;;;;;;7.00;1.40;;;9.00;68.30;;;;;;4384861;28;654906;-74
2023/04/26 12:30:11;;;;;;;4.40;1.40;;;9.20;64.40;;;;;;4367031;28;653329;-74
2023/04/26 12:33:00;;;;;;;5.03;1.30;;;9.30;68.00;;;;;;4396940;28;654388;-74
2023/04/26 12:35:48;;;;;;;5.47;1.37;;;9.70;65.70;;;;;;4365397;28;653855;-76
2023/04/26 12:38:36;;;;;;;5.87;1.50;;;9.90;62.60;;;;;;4370278;28;653643;-74
2023/04/26 12:41:23;;;;;;;3.17;1.23;;;10.00;60.70;;;;;;4396705;28;654482;-74
2023/04/26 12:44:11;;;;;;;6.47;1.20;;;8.80;57.30;;;;;;4372505;28;654579;-73
2023/04/26 12:46:58;;;;;;;7.00;1.00;;;8.40;60.90;;;;;;4389120;28;654519;-74
2023/04/26 12:49:46;;;;;;;3.40;0.90;;;8.80;56.80;;;;;;4371568;28;653822;-73
2023/04/26 12:52:34;;;;;;;1.70;0.70;;;10.00;58.50;;;;;;4392881;28;653704;-72
2023/04/26 12:55:21;;;;;;;3.27;0.90;;;10.40;52.90;;;;;;4366282;28;655302;-74
2023/04/26 12:58:08;;;;;;;3.53;1.00;;;10.40;52.40;;;;;;4387507;28;655269;-75
2023/04/26 13:00:56;;;;;;;3.47;1.00;;;9.80;52.80;;;;;;4366006;28;654439;-74
2023/04/26 13:03:44;;;;;;;3.00;0.87;;;10.60;51.90;;;;;;4399019;28;653992;-75
2023/04/26 13:06:32;;;;;;;3.13;1.20;;;11.10;49.00;;;;;;4368579;28;654390;-74
2023/04/26 13:09:19;;;;;;;4.83;1.10;;;11.30;50.90;;;;;;4390497;28;654551;-75
2023/04/26 13:12:07;;;;;;;6.63;1.50;;;11.90;53.70;;;;;;4365759;28;654492;-75
2023/04/26 13:14:54;;;;;;;4.43;1.23;;;11.40;48.30;;;;;;4385846;28;654719;-75
2023/04/26 13:17:43;;;;;;;4.57;1.37;;;10.20;52.10;;;;;;4368272;28;654536;-74
2023/04/26 13:20:30;;;;;;;8.43;1.13;;;9.40;56.20;;;;;;4374788;28;654966;-73
2023/04/26 13:23:19;;;;;;;7.37;1.60;;;9.50;58.60;;;;;;4286966;28;654098;-72
2023/04/26 13:26:06;;;;;;;5.30;1.47;;;9.00;60.00;;;;;;4199640;28;654636;-73
2023/04/26 13:28:54;;;;;;;4.97;1.63;;;9.50;63.70;;;;;;4268862;28;653970;-75
2023/04/26 13:31:41;;;;;;;3.57;1.00;;;9.40;61.20;;;;;;4364530;28;653924;-73
2023/04/26 13:34:29;;;;;;;4.53;1.20;;;9.60;57.20;;;;;;4386924;28;653794;-75
2023/04/26 13:37:19;;;;;;;2.50;1.07;;;9.70;59.10;;;;;;4372701;28;653640;-74
2023/04/26 13:40:10;;;;;;;5.30;1.33;;;9.60;58.70;;;;;;4371435;28;654074;-74
2023/04/26 13:42:58;;;;;;;3.73;1.07;;;9.50;59.80;;;;;;4364628;28;654103;-75
2023/04/26 13:45:45;;;;;;;7.00;1.20;;;9.20;56.50;;;;;;4378245;28;653841;-73
2023/04/26 13:48:32;;;;;;;6.80;1.27;;;9.10;54.00;;;;;;4387915;28;654256;-74
2023/04/26 13:51:20;;;;;;;3.67;1.20;;;9.80;55.40;;;;;;4381980;28;653144;-73
2023/04/26 13:54:07;;;;;;;3.27;1.13;;;10.50;57.10;;;;;;4389023;28;653838;-73
2023/04/26 13:56:57;;;;;;;4.57;1.30;;;11.10;52.10;;;;;;4378450;28;654735;-73
2023/04/26 13:59:44;;;;;;;4.10;1.20;;;10.80;51.20;;;;;;4380504;28;655421;-74
2023/04/26 14:02:31;;;;;;;6.53;1.20;;;10.00;50.90;;;;;;4357708;28;654894;-73
2023/04/26 14:05:19;;;;;;;4.00;1.27;;;9.50;51.80;;;;;;4388664;28;654929;-74
2023/04/26 14:08:06;;;;;;;5.47;1.40;;;9.10;54.30;;;;;;4361278;28;654156;-74
2023/04/26 14:10:54;;;;;;;5.73;1.53;;;8.90;55.00;;;;;;4383959;28;653453;-73
2023/04/26 14:13:42;;;;;;;10.10;1.40;;;8.80;55.30;;;;;;4362256;28;653776;-73
2023/04/26 14:16:30;;;;;;;4.83;1.60;;;8.50;57.70;;;;;;4377595;28;655016;-73
2023/04/26 14:19:17;;;;;;;7.60;1.50;;;8.70;58.40;;;;;;4367488;28;653594;-73
2023/04/26 14:22:04;;;;;;;4.60;1.63;;;8.80;59.30;;;;;;4384563;28;653692;-75
2023/04/26 14:24:51;;;;;;;5.23;1.30;;;9.20;60.80;;;;;;4365638;28;653569;-75
2023/04/26 14:27:39;;;;;;;4.03;1.30;;;10.00;56.90;;;;;;4382878;28;654339;-73
2023/04/26 14:30:28;;;;;;;6.63;1.60;;;10.40;55.40;;;;;;4366635;28;654399;-73